createdAt,value
2019-05-12T00:01:53.863Z,100696.31
2019-05-12T00:04:24.868Z,100700.73
2019-05-12T00:06:58.418Z,100706.45
2019-05-12T00:09:28.487Z,100706.12
2019-05-12T00:11:59.679Z,100716.73
2019-05-12T00:14:30.335Z,100721.08
2019-05-12T00:17:00.982Z,100715.30
2019-05-12T00:19:31.770Z,100716.55
2019-05-12T00:22:02.973Z,100717.39
2019-05-12T00:24:35.234Z,100718.81
2019-05-12T00:27:17.868Z,100727.44
2019-05-12T00:29:48.955Z,100726.53
2019-05-12T00:32:19.923Z,100727.58
2019-05-12T00:34:51.013Z,100733.05
2019-05-12T00:37:22.740Z,100750.26
2019-05-12T00:39:53.786Z,100750.59
2019-05-12T00:42:24.457Z,100756.33
2019-05-12T00:44:55.116Z,100761.22
2019-05-12T00:47:27.951Z,100760.78
2019-05-12T00:49:58.741Z,100760.50
2019-05-12T00:52:29.414Z,100760.86
2019-05-12T00:55:00.057Z,100767.34
2019-05-12T00:57:30.738Z,100773.64
2019-05-12T01:00:01.673Z,100785.45
2019-05-12T01:02:34.115Z,100789.57
2019-05-12T01:05:09.187Z,100795.68
2019-05-12T01:07:40.226Z,100790.16
2019-05-12T01:10:11.399Z,100802.33
2019-05-12T01:12:42.086Z,100802.25
2019-05-12T01:15:13.714Z,100807.77
2019-05-12T01:17:44.694Z,100806.05
2019-05-12T01:20:18.362Z,100804.62
2019-05-12T01:22:50.585Z,100814.64
2019-05-12T01:25:21.396Z,100817.86
2019-05-12T01:27:52.054Z,100815.58
2019-05-12T01:30:22.887Z,100828.34
2019-05-12T01:32:53.904Z,100834.95
2019-05-12T01:35:24.857Z,100836.98
2019-05-12T01:37:55.851Z,100841.21
2019-05-12T01:40:28.591Z,100843.61
2019-05-12T01:43:00.531Z,100851.30
2019-05-12T01:45:31.189Z,100854.82
2019-05-12T01:48:02.944Z,100860.81
2019-05-12T01:50:33.615Z,100863.72
2019-05-12T01:53:07.918Z,100872.48
2019-05-12T01:55:38.791Z,100878.99
2019-05-12T01:58:10.082Z,100879.70
2019-05-12T02:00:40.773Z,100883.90
2019-05-12T02:03:11.742Z,100890.74
2019-05-12T02:05:44.513Z,100899.39
2019-05-12T02:08:20.065Z,100906.30
2019-05-12T02:10:52.408Z,100914.50
2019-05-12T02:13:23.446Z,100913.77
2019-05-12T02:15:54.113Z,100922.17
2019-05-12T02:18:24.855Z,100926.52
2019-05-12T02:20:57.725Z,100921.94
2019-05-12T02:23:28.425Z,100930.62
2019-05-12T02:25:59.087Z,100931.22
2019-05-12T02:28:30.119Z,100936.72
2019-05-12T02:31:00.810Z,100943.00
2019-05-12T02:33:31.471Z,100941.57
2019-05-12T02:36:04.701Z,100950.59
2019-05-12T02:38:34.882Z,100953.13
2019-05-12T02:41:05.764Z,100948.64
2019-05-12T02:43:37.162Z,100957.22
2019-05-12T02:46:07.835Z,100966.52
2019-05-12T02:48:38.492Z,100971.56
2019-05-12T02:51:10.596Z,100976.25
2019-05-12T02:53:41.625Z,100974.92
2019-05-12T02:56:15.130Z,100976.73
2019-05-12T02:58:48.838Z,100978.05
2019-05-12T03:01:24.404Z,100977.69
2019-05-12T03:03:58.086Z,100970.83
2019-05-12T03:06:31.458Z,100979.99
2019-05-12T03:09:07.661Z,100972.50
2019-05-12T03:11:38.385Z,100981.18
2019-05-12T03:14:09.074Z,100981.30
2019-05-12T03:16:40.052Z,100986.71
2019-05-12T03:19:10.735Z,100984.65
2019-05-12T03:21:44.161Z,100991.64
2019-05-12T03:24:14.431Z,100995.73
2019-05-12T03:26:46.169Z,101002.11
2019-05-12T03:29:16.838Z,101006.20
2019-05-12T03:31:49.069Z,101009.95
2019-05-12T03:34:20.880Z,101018.02
2019-05-12T03:36:58.613Z,101010.99
2019-05-12T03:39:25.753Z,101017.28
2019-05-12T03:41:56.453Z,101018.97
2019-05-12T03:44:27.150Z,101025.48
2019-05-12T03:46:57.836Z,101025.97
2019-05-12T03:49:28.497Z,101029.69
2019-05-12T03:51:59.535Z,101031.02
2019-05-12T03:54:30.199Z,101033.41
2019-05-12T03:57:00.901Z,101038.36
2019-05-12T03:59:34.601Z,101051.50
2019-05-12T04:02:04.931Z,101058.27
2019-05-12T04:04:35.976Z,101066.45
2019-05-12T04:07:06.667Z,101074.52
2019-05-12T04:09:37.727Z,101087.67
2019-05-12T04:12:08.816Z,101091.39
2019-05-12T04:14:39.463Z,101095.48
2019-05-12T04:17:10.459Z,101108.16
2019-05-12T04:19:41.150Z,101111.75
2019-05-12T04:22:15.118Z,101113.92
2019-05-12T04:24:44.654Z,101118.04
2019-05-12T04:27:15.692Z,101127.78
2019-05-12T04:29:46.530Z,101128.75
2019-05-12T04:32:17.488Z,101132.12
2019-05-12T04:34:48.183Z,101128.75
2019-05-12T04:37:18.936Z,101136.59
2019-05-12T04:39:49.643Z,101142.86
2019-05-12T04:42:20.363Z,101150.67
2019-05-12T04:44:51.475Z,101155.14
2019-05-12T04:47:25.055Z,101159.98
2019-05-12T04:49:54.774Z,101164.55
2019-05-12T04:52:25.586Z,101171.78
2019-05-12T04:54:56.238Z,101171.30
2019-05-12T04:57:27.290Z,101173.83
2019-05-12T04:59:58.330Z,101183.13
2019-05-12T05:02:29.402Z,101180.22
2019-05-12T05:05:00.045Z,101185.52
2019-05-12T05:07:30.719Z,101177.58
2019-05-12T05:10:04.649Z,101181.31
2019-05-12T05:12:34.659Z,101188.53
2019-05-12T05:15:08.129Z,101195.16
2019-05-12T05:17:38.821Z,101197.34
2019-05-12T05:20:09.915Z,101199.41
2019-05-12T05:22:41.071Z,101202.78
2019-05-12T05:25:14.229Z,101207.70
2019-05-12T05:27:44.829Z,101210.23
2019-05-12T05:30:15.491Z,101221.70
2019-05-12T05:32:46.162Z,101219.75
2019-05-12T05:35:16.920Z,101231.09
2019-05-12T05:37:47.593Z,101234.83
2019-05-12T05:40:19.889Z,101235.42
2019-05-12T05:42:51.092Z,101230.84
2019-05-12T05:45:26.208Z,101234.48
2019-05-12T05:47:54.523Z,101231.22
2019-05-12T05:50:29.470Z,101235.06
2019-05-12T05:52:57.931Z,101230.47
2019-05-12T05:55:28.982Z,101247.13
2019-05-12T05:58:04.495Z,101250.27
2019-05-12T06:00:35.166Z,101253.15
2019-05-12T06:03:05.698Z,101252.17
2019-05-12T06:05:38.679Z,101255.08
2019-05-12T06:08:14.779Z,101257.12
2019-05-12T06:10:43.551Z,101262.80
2019-05-12T06:13:14.686Z,101265.34
2019-05-12T06:15:45.349Z,101257.45
2019-05-12T06:18:16.339Z,101261.98
2019-05-12T06:20:47.036Z,101269.06
2019-05-12T06:23:18.114Z,101267.36
2019-05-12T06:25:51.501Z,101276.77
2019-05-12T06:28:23.380Z,101278.56
2019-05-12T06:30:54.920Z,101284.58
2019-05-12T06:33:31.881Z,101301.97
2019-05-12T06:35:59.045Z,101303.98
2019-05-12T06:38:31.106Z,101315.19
2019-05-12T06:41:03.631Z,101318.11
2019-05-12T06:43:38.799Z,101324.70
2019-05-12T06:46:07.120Z,101325.59
2019-05-12T06:48:37.759Z,101334.81
2019-05-12T06:51:09.259Z,101335.98
2019-05-12T06:53:40.797Z,101333.18
2019-05-12T06:56:15.396Z,101334.59
2019-05-12T06:58:49.670Z,101339.39
2019-05-12T07:01:20.743Z,101339.49
2019-05-12T07:03:53.371Z,101340.27
2019-05-12T07:06:24.863Z,101346.97
2019-05-12T07:09:06.355Z,101346.47
2019-05-12T07:11:41.323Z,101343.01
2019-05-12T07:14:05.254Z,101341.80
2019-05-12T07:16:34.117Z,101341.02
2019-05-12T07:19:09.642Z,101341.64
2019-05-12T07:21:37.552Z,101347.98
2019-05-12T07:24:11.076Z,101343.11
2019-05-12T07:26:41.097Z,101337.11
2019-05-12T07:29:13.413Z,101342.53
2019-05-12T07:31:45.093Z,101338.41
2019-05-12T07:34:16.221Z,101332.09
2019-05-12T07:36:48.924Z,101340.14
2019-05-12T07:39:21.023Z,101330.61
2019-05-12T07:41:55.100Z,101333.03
2019-05-12T07:44:34.394Z,101337.73
2019-05-12T07:47:03.623Z,101340.12
2019-05-12T07:49:38.493Z,101341.04
2019-05-12T07:52:08.529Z,101344.75
2019-05-12T07:54:39.621Z,101347.84
2019-05-12T07:57:12.495Z,101349.20
2019-05-12T07:59:43.772Z,101344.77
2019-05-12T08:02:14.967Z,101351.69
2019-05-12T08:04:46.021Z,101355.14
2019-05-12T08:07:19.723Z,101361.22
2019-05-12T08:09:49.100Z,101373.84
2019-05-12T08:12:21.162Z,101371.78
2019-05-12T08:14:54.094Z,101373.11
2019-05-12T08:17:24.795Z,101367.02
2019-05-12T08:19:55.823Z,101374.32
2019-05-12T08:22:29.424Z,101374.32
2019-05-12T08:25:00.703Z,101375.48
2019-05-12T08:27:33.911Z,101377.95
2019-05-12T08:30:06.262Z,101374.22
2019-05-12T08:32:37.374Z,101379.72
2019-05-12T08:35:09.343Z,101380.69
2019-05-12T08:37:40.374Z,101385.17
2019-05-12T08:40:11.835Z,101390.27
2019-05-12T08:42:43.683Z,101396.16
2019-05-12T08:45:23.772Z,101398.14
2019-05-12T08:47:47.811Z,101402.72
2019-05-12T08:50:23.065Z,101408.49
2019-05-12T08:52:53.866Z,101407.70
2019-05-12T08:55:31.149Z,101411.61
2019-05-12T08:57:56.719Z,101409.41
2019-05-12T09:00:46.500Z,101406.22
2019-05-12T09:03:14.357Z,101410.86
2019-05-12T09:05:45.288Z,101412.75
2019-05-12T09:08:17.117Z,101407.41
2019-05-12T09:10:48.159Z,101405.79
2019-05-12T09:13:18.856Z,101414.02
2019-05-12T09:15:49.947Z,101409.23
2019-05-12T09:18:20.644Z,101408.41
2019-05-12T09:20:53.458Z,101420.08
2019-05-12T09:23:24.097Z,101413.17
2019-05-12T09:25:57.139Z,101421.73
2019-05-12T09:28:27.496Z,101418.78
2019-05-12T09:30:58.343Z,101422.59
2019-05-12T09:33:31.847Z,101421.98
2019-05-12T09:36:04.150Z,101424.73
2019-05-12T09:38:34.763Z,101426.56
2019-05-12T09:41:05.732Z,101419.83
2019-05-12T09:43:40.142Z,101419.42
2019-05-12T09:46:09.112Z,101427.55
2019-05-12T09:48:46.894Z,101434.38
2019-05-12T09:51:13.390Z,101431.40
2019-05-12T09:53:50.982Z,101422.99
2019-05-12T09:56:17.303Z,101431.86
2019-05-12T09:58:59.012Z,101426.80
2019-05-12T10:01:20.959Z,101421.98
2019-05-12T10:03:54.331Z,101435.45
2019-05-12T10:06:24.715Z,101425.42
2019-05-12T10:08:55.381Z,101431.97
2019-05-12T10:11:26.440Z,101433.52
2019-05-12T10:14:00.309Z,101435.34
2019-05-12T10:16:29.494Z,101438.98
2019-05-12T10:19:00.480Z,101446.95
2019-05-12T10:21:31.511Z,101437.16
2019-05-12T10:24:05.073Z,101448.50
2019-05-12T10:26:36.477Z,101445.61
2019-05-12T10:29:17.511Z,101443.87
2019-05-12T10:31:44.524Z,101452.00
2019-05-12T10:34:23.570Z,101456.30
2019-05-12T10:36:54.054Z,101443.61
2019-05-12T10:39:24.902Z,101440.80
2019-05-12T10:41:55.921Z,101443.17
2019-05-12T10:44:30.082Z,101440.91
2019-05-12T10:47:00.961Z,101455.01
2019-05-12T10:49:33.726Z,101455.20
2019-05-12T10:52:07.206Z,101467.07
2019-05-12T10:54:37.905Z,101452.36
2019-05-12T10:57:09.827Z,101458.70
2019-05-12T10:59:45.188Z,101454.59
2019-05-12T11:02:13.932Z,101460.34
2019-05-12T11:04:45.163Z,101470.14
2019-05-12T11:07:16.160Z,101462.01
2019-05-12T11:09:46.834Z,101471.46
2019-05-12T11:12:19.088Z,101467.91
2019-05-12T11:14:49.887Z,101456.64
2019-05-12T11:17:20.955Z,101463.37
2019-05-12T11:19:54.032Z,101449.57
2019-05-12T11:22:24.424Z,101464.23
2019-05-12T11:24:55.876Z,101474.86
2019-05-12T11:27:27.025Z,101460.77
2019-05-12T11:29:57.691Z,101457.59
2019-05-12T11:32:34.876Z,101456.62
2019-05-12T11:35:04.112Z,101458.08
2019-05-12T11:37:35.198Z,101471.64
2019-05-12T11:40:07.430Z,101470.33
2019-05-12T11:42:38.110Z,101491.80
2019-05-12T11:45:09.579Z,101491.77
2019-05-12T11:47:40.686Z,101488.19
2019-05-12T11:50:13.201Z,101485.05
2019-05-12T11:52:45.992Z,101482.58
2019-05-12T11:55:21.393Z,101489.73
2019-05-12T11:57:49.646Z,101493.14
2019-05-12T12:00:24.215Z,101501.66
2019-05-12T12:02:54.878Z,101504.64
2019-05-12T12:05:25.593Z,101508.78
2019-05-12T12:07:56.576Z,101506.62
2019-05-12T12:10:29.265Z,101515.39
2019-05-12T12:13:00.783Z,101522.23
2019-05-12T12:15:31.786Z,101524.92
2019-05-12T12:18:03.881Z,101531.66
2019-05-12T12:20:35.511Z,101529.65
2019-05-12T12:23:10.791Z,101529.96
2019-05-12T12:25:43.142Z,101522.08
2019-05-12T12:28:13.474Z,101541.06
2019-05-12T12:30:47.374Z,101550.14
2019-05-12T12:33:16.944Z,101539.05
2019-05-12T12:35:50.574Z,101535.65
2019-05-12T12:38:20.184Z,101530.59
2019-05-12T12:40:53.396Z,101541.39
2019-05-12T12:43:24.782Z,101549.63
2019-05-12T12:45:57.524Z,101551.78
2019-05-12T12:48:29.947Z,101548.27
2019-05-12T12:51:01.019Z,101552.16
2019-05-12T12:53:34.350Z,101553.17
2019-05-12T12:56:05.201Z,101560.89
2019-05-12T12:58:36.165Z,101556.36
2019-05-12T13:01:07.230Z,101549.48
2019-05-12T13:03:38.259Z,101552.52
2019-05-12T13:06:09.186Z,101561.23
2019-05-12T13:08:40.222Z,101572.50
2019-05-12T13:11:10.895Z,101564.27
2019-05-12T13:13:41.879Z,101572.00
2019-05-12T13:16:13.309Z,101568.45
2019-05-12T13:18:44.018Z,101561.41
2019-05-12T13:21:14.774Z,101563.59
2019-05-12T13:23:45.459Z,101564.77
2019-05-12T13:26:16.129Z,101569.49
2019-05-12T13:28:53.257Z,101571.49
2019-05-12T13:31:19.188Z,101578.33
2019-05-12T13:33:54.681Z,101566.61
2019-05-12T13:36:24.267Z,101569.31
2019-05-12T13:38:55.419Z,101571.34
2019-05-12T13:41:26.099Z,101570.30
2019-05-12T13:43:59.947Z,101575.68
2019-05-12T13:46:29.860Z,101582.11
2019-05-12T13:49:00.565Z,101580.08
2019-05-12T13:51:33.320Z,101583.09
2019-05-12T13:54:03.978Z,101578.55
2019-05-12T13:56:35.890Z,101577.70
2019-05-12T13:59:06.895Z,101570.14
2019-05-12T14:01:40.252Z,101576.53
2019-05-12T14:04:10.256Z,101580.41
2019-05-12T14:06:40.949Z,101584.94
2019-05-12T14:09:13.615Z,101583.73
2019-05-12T14:11:44.465Z,101577.56
2019-05-12T14:14:15.762Z,101578.06
2019-05-12T14:16:53.585Z,101581.75
2019-05-12T14:19:20.385Z,101583.77
2019-05-12T14:21:51.518Z,101579.75
2019-05-12T14:24:23.315Z,101581.45
2019-05-12T14:26:54.400Z,101580.95
2019-05-12T14:29:26.600Z,101583.10
2019-05-12T14:32:02.411Z,101584.97
2019-05-12T14:34:30.308Z,101587.81
2019-05-12T14:37:06.824Z,101592.53
2019-05-12T14:39:34.452Z,101592.48
2019-05-12T14:42:05.331Z,101599.22
2019-05-12T14:44:44.012Z,101599.59
2019-05-12T14:47:08.419Z,101591.86
2019-05-12T14:49:39.409Z,101591.84
2019-05-12T14:52:10.165Z,101599.06
2019-05-12T14:54:43.436Z,101601.10
2019-05-12T14:57:13.971Z,101608.34
2019-05-12T14:59:44.939Z,101606.63
2019-05-12T15:02:19.402Z,101601.28
2019-05-12T15:04:48.348Z,101599.06
2019-05-12T15:07:19.214Z,101602.77
2019-05-12T15:09:53.926Z,101600.25
2019-05-12T15:12:24.210Z,101599.59
2019-05-12T15:14:54.672Z,101607.64
2019-05-12T15:17:25.655Z,101606.81
2019-05-12T15:20:00.208Z,101610.33
2019-05-12T15:22:29.053Z,101613.86
2019-05-12T15:25:02.696Z,101605.66
2019-05-12T15:27:42.350Z,101617.74
2019-05-12T15:30:18.913Z,101618.09
2019-05-12T15:32:40.917Z,101624.31
2019-05-12T15:35:13.714Z,101628.16
2019-05-12T15:37:44.048Z,101618.55
2019-05-12T15:40:14.878Z,101623.23
2019-05-12T15:42:45.575Z,101621.72
2019-05-12T15:45:17.179Z,101625.12
2019-05-12T15:47:48.143Z,101618.70
2019-05-12T15:50:19.624Z,101624.44
2019-05-12T15:52:50.323Z,101617.08
2019-05-12T15:55:25.585Z,101622.44
2019-05-12T15:57:54.012Z,101624.13
2019-05-12T16:00:24.731Z,101621.30
2019-05-12T16:02:55.686Z,101615.91
2019-05-12T16:05:30.981Z,101620.80
2019-05-12T16:08:00.288Z,101626.00
2019-05-12T16:10:31.298Z,101634.89
2019-05-12T16:13:02.249Z,101631.54
2019-05-12T16:15:33.987Z,101634.88
2019-05-12T16:18:09.907Z,101635.19
2019-05-12T16:20:39.569Z,101639.90
2019-05-12T16:23:17.135Z,101640.05
2019-05-12T16:25:42.868Z,101640.19
2019-05-12T16:28:22.677Z,101640.72
2019-05-12T16:30:47.334Z,101645.58
2019-05-12T16:33:20.789Z,101642.05
2019-05-12T16:35:50.769Z,101635.11
2019-05-12T16:38:23.494Z,101639.30
2019-05-12T16:40:54.019Z,101644.89
2019-05-12T16:43:29.463Z,101640.51
2019-05-12T16:45:57.071Z,101640.95
2019-05-12T16:48:32.819Z,101648.45
2019-05-12T16:51:00.455Z,101651.14
2019-05-12T16:53:31.122Z,101651.91
2019-05-12T16:56:04.098Z,101657.75
2019-05-12T16:58:35.493Z,101651.19
2019-05-12T17:01:06.434Z,101662.41
2019-05-12T17:03:37.098Z,101671.91
2019-05-12T17:06:08.033Z,101665.77
2019-05-12T17:08:38.980Z,101667.25
2019-05-12T17:11:24.373Z,101670.91
2019-05-12T17:13:47.502Z,101669.07
2019-05-12T17:16:16.503Z,101677.42
2019-05-12T17:18:47.445Z,101682.36
2019-05-12T17:21:18.414Z,101674.91
2019-05-12T17:23:49.164Z,101684.22
2019-05-12T17:26:19.851Z,101684.34
2019-05-12T17:28:50.535Z,101686.67
2019-05-12T17:31:21.557Z,101686.99
2019-05-12T17:33:54.376Z,101687.64
2019-05-12T17:36:25.469Z,101685.13
2019-05-12T17:38:57.800Z,101696.91
2019-05-12T17:41:31.445Z,101697.48
2019-05-12T17:44:01.520Z,101700.48
2019-05-12T17:46:37.883Z,101706.98
2019-05-12T17:49:05.348Z,101709.98
2019-05-12T17:51:37.604Z,101708.08
2019-05-12T17:54:15.697Z,101714.76
2019-05-12T17:56:41.240Z,101720.63
2019-05-12T17:59:14.825Z,101712.81
2019-05-12T18:01:44.380Z,101722.84
2019-05-12T18:04:15.050Z,101727.69
2019-05-12T18:06:46.079Z,101726.84
2019-05-12T18:09:20.034Z,101732.86
2019-05-12T18:11:54.233Z,101739.17
2019-05-12T18:14:26.742Z,101739.63
2019-05-12T18:17:02.453Z,101742.22
2019-05-12T18:19:27.192Z,101748.52
2019-05-12T18:22:03.251Z,101745.77
2019-05-12T18:24:30.888Z,101746.08
2019-05-12T18:27:07.251Z,101751.66
2019-05-12T18:29:34.676Z,101754.03
2019-05-12T18:32:08.531Z,101761.03
2019-05-12T18:34:38.287Z,101766.63
2019-05-12T18:37:09.049Z,101771.19
2019-05-12T18:39:40.049Z,101775.38
2019-05-12T18:42:10.735Z,101777.84
2019-05-12T18:44:43.675Z,101787.97
2019-05-12T18:47:16.738Z,101794.66
2019-05-12T18:49:47.911Z,101796.26
2019-05-12T18:52:19.096Z,101804.30
2019-05-12T18:54:52.663Z,101805.88
2019-05-12T18:57:23.812Z,101810.88
2019-05-12T19:00:01.494Z,101771.26
2019-05-12T19:02:28.582Z,101823.26
2019-05-12T19:05:00.468Z,101823.50
2019-05-12T19:07:39.606Z,101824.16
2019-05-12T19:10:05.043Z,101830.06
2019-05-12T19:12:35.882Z,101838.83
2019-05-12T19:15:10.181Z,101842.48
2019-05-12T19:17:40.558Z,101841.67
2019-05-12T19:20:13.399Z,101848.62
2019-05-12T19:22:51.270Z,101850.39
2019-05-12T19:25:19.378Z,101857.16
2019-05-12T19:27:55.526Z,101856.83
2019-05-12T19:30:25.382Z,101865.99
2019-05-12T19:32:54.967Z,101868.67
2019-05-12T19:35:25.974Z,101874.10
2019-05-12T19:37:57.109Z,101881.77
2019-05-12T19:40:27.802Z,101882.57
2019-05-12T19:45:40.804Z,101883.40
2019-05-12T19:48:23.828Z,101891.58
2019-05-12T19:50:52.126Z,101898.94
2019-05-12T19:53:18.003Z,101892.15
2019-05-12T19:55:49.863Z,101894.17
2019-05-12T19:58:23.550Z,101893.48
2019-05-12T20:00:54.253Z,101897.14
2019-05-12T20:03:25.353Z,101907.55
2019-05-12T20:05:56.375Z,101913.11
2019-05-12T20:08:27.421Z,101923.20
2019-05-12T20:10:58.152Z,101915.47
2019-05-12T20:13:35.106Z,101919.97
2019-05-12T20:16:02.104Z,101925.60
2019-05-12T20:18:36.170Z,101927.83
2019-05-12T20:21:05.497Z,101932.95
2019-05-12T20:23:36.547Z,101931.36
2019-05-12T20:26:07.237Z,101932.70
2019-05-12T20:28:41.883Z,101940.59
2019-05-12T20:31:10.687Z,101939.38
2019-05-12T20:33:43.441Z,101940.23
2019-05-12T20:36:14.346Z,101945.37
2019-05-12T20:38:45.132Z,101946.71
2019-05-12T20:41:22.645Z,101956.42
2019-05-12T20:43:48.856Z,101960.89
2019-05-12T20:46:24.288Z,101955.87
2019-05-12T20:48:53.930Z,101951.13
2019-05-12T20:51:25.186Z,101956.66
2019-05-12T20:53:55.847Z,101957.27
2019-05-12T20:56:26.951Z,101965.55
2019-05-12T20:58:57.616Z,101965.79
2019-05-12T21:01:30.244Z,101966.55
2019-05-12T21:04:03.502Z,101975.23
2019-05-12T21:06:41.718Z,101972.84
2019-05-12T21:09:07.342Z,101976.36
2019-05-12T21:11:40.823Z,101982.37
2019-05-12T21:14:11.789Z,101980.46
2019-05-12T21:16:44.902Z,101973.90
2019-05-12T21:19:15.191Z,101979.40
2019-05-12T21:21:46.264Z,101979.88
2019-05-12T21:24:16.919Z,101979.33
2019-05-12T21:26:48.050Z,101988.66
2019-05-12T21:29:24.690Z,101983.72
2019-05-12T21:31:53.162Z,101990.11
2019-05-12T21:34:25.530Z,101992.42
2019-05-12T21:36:58.932Z,101990.87
2019-05-12T21:39:29.347Z,101997.67
2019-05-12T21:42:00.052Z,102005.11
2019-05-12T21:44:31.006Z,101997.57
2019-05-12T21:47:07.860Z,102005.47
2019-05-12T21:49:34.650Z,101999.87
2019-05-12T21:52:06.518Z,101999.30
2019-05-12T21:54:39.521Z,102007.77
2019-05-12T21:57:11.020Z,102004.59
2019-05-12T21:59:41.699Z,102005.09
2019-05-12T22:02:14.725Z,102011.44
2019-05-12T22:04:45.775Z,102009.30
2019-05-12T22:07:16.835Z,102009.30
2019-05-12T22:09:47.601Z,102014.31
2019-05-12T22:12:23.293Z,102013.69
2019-05-12T22:14:51.021Z,102014.81
2019-05-12T22:17:23.907Z,102020.25
2019-05-12T22:19:54.672Z,102022.83
2019-05-12T22:22:29.802Z,102023.94
2019-05-12T22:24:58.121Z,102019.45
2019-05-12T22:27:30.913Z,102017.42
2019-05-12T22:30:01.193Z,102026.78
2019-05-12T22:32:33.110Z,102018.08
2019-05-12T22:35:05.833Z,102026.17
2019-05-12T22:37:36.726Z,102022.30
2019-05-12T22:40:15.066Z,102021.55
2019-05-12T22:42:41.437Z,102023.42
2019-05-12T22:45:15.370Z,102026.31
2019-05-12T22:47:49.235Z,102028.73
2019-05-12T22:50:18.785Z,102037.49
2019-05-12T22:52:49.612Z,102037.13
2019-05-12T22:55:21.149Z,102040.53
2019-05-12T22:57:52.829Z,102042.75
2019-05-12T23:00:24.468Z,102041.28
2019-05-12T23:03:00.539Z,102046.65
2019-05-12T23:05:28.068Z,102052.70
2019-05-12T23:08:00.119Z,102046.65
2019-05-12T23:10:31.126Z,102047.88
2019-05-12T23:13:04.831Z,102049.35
2019-05-12T23:15:38.749Z,102050.91
2019-05-12T23:18:07.651Z,102049.09
2019-05-12T23:20:38.321Z,102056.64
2019-05-12T23:23:15.364Z,102059.80
2019-05-12T23:25:43.928Z,102061.13
2019-05-12T23:28:14.120Z,102062.69
2019-05-12T23:30:48.568Z,102075.80
2019-05-12T23:33:17.797Z,102075.21
2019-05-12T23:35:48.827Z,102067.80
2019-05-12T23:38:21.099Z,102075.81
2019-05-12T23:40:53.796Z,102080.68
2019-05-12T23:43:25.035Z,102079.32
2019-05-12T23:45:56.050Z,102080.31
2019-05-12T23:48:27.094Z,102072.30
2019-05-12T23:50:57.774Z,102072.91
2019-05-12T23:53:28.471Z,102075.95
2019-05-12T23:55:59.122Z,102079.08
2019-05-12T23:58:30.878Z,102086.61
